createdAt,value
2018-02-09T00:00:03.942Z,91.95
2018-02-09T00:02:31.397Z,88.50
2018-02-09T00:04:58.851Z,93.70
2018-02-09T00:07:26.303Z,89.80
2018-02-09T00:09:53.765Z,96.95
2018-02-09T00:12:21.325Z,89.20
2018-02-09T00:14:48.781Z,92.85
2018-02-09T00:17:16.229Z,106.45
2018-02-09T00:19:43.794Z,104.87
2018-02-09T00:22:13.030Z,100.07
2018-02-09T00:24:41.374Z,103.87
2018-02-09T00:27:08.931Z,102.82
2018-02-09T00:29:36.386Z,92.28
2018-02-09T00:32:03.834Z,98.20
2018-02-09T00:34:31.290Z,101.90
2018-02-09T00:36:58.749Z,95.60
2018-02-09T00:39:26.373Z,92.32
2018-02-09T00:41:53.814Z,99.28
2018-02-09T00:44:22.042Z,109.50
2018-02-09T00:46:49.496Z,99.87
2018-02-09T00:49:16.949Z,105.70
2018-02-09T00:51:44.398Z,99.53
2018-02-09T00:54:11.851Z,99.97
2018-02-09T00:56:39.330Z,103.15
2018-02-09T00:59:06.887Z,112.95
2018-02-09T01:01:34.648Z,102.20
2018-02-09T01:04:02.102Z,92.90
2018-02-09T01:06:29.557Z,95.55
2018-02-09T01:08:57.129Z,96.30
2018-02-09T01:11:24.582Z,99.55
2018-02-09T01:13:52.142Z,94.80
2018-02-09T01:16:19.897Z,95.78
2018-02-09T01:18:47.357Z,98.65
2018-02-09T01:21:14.803Z,94.57
2018-02-09T01:23:42.263Z,88.80
2018-02-09T01:26:09.735Z,95.53
2018-02-09T01:28:37.189Z,92.00
2018-02-09T01:31:04.652Z,91.18
2018-02-09T01:33:32.097Z,89.35
2018-02-09T01:35:59.555Z,89.30
2018-02-09T01:38:27.119Z,91.10
2018-02-09T01:40:54.566Z,89.60
2018-02-09T01:43:22.426Z,92.57
2018-02-09T01:45:49.877Z,92.37
2018-02-09T01:48:17.355Z,90.65
2018-02-09T01:50:44.814Z,91.10
2018-02-09T01:53:12.371Z,96.25
2018-02-09T01:55:39.942Z,92.03
2018-02-09T01:58:07.382Z,93.80
2018-02-09T02:00:34.924Z,90.32
2018-02-09T02:03:02.406Z,89.22
2018-02-09T02:05:29.962Z,85.50
2018-02-09T02:07:57.522Z,86.65
2018-02-09T02:10:25.080Z,84.10
2018-02-09T02:12:52.539Z,88.47
2018-02-09T02:15:19.999Z,88.03
2018-02-09T02:17:47.646Z,87.78
2018-02-09T02:20:15.111Z,86.05
2018-02-09T02:22:42.666Z,84.13
2018-02-09T02:25:10.122Z,84.45
2018-02-09T02:27:37.930Z,83.22
2018-02-09T02:30:06.174Z,83.45
2018-02-09T02:32:33.623Z,83.70
2018-02-09T02:35:01.083Z,82.65
2018-02-09T02:37:28.531Z,84.87
2018-02-09T02:39:56.093Z,80.07
2018-02-09T02:42:23.538Z,88.72
2018-02-09T02:44:51.732Z,81.97
2018-02-09T02:47:19.174Z,82.82
2018-02-09T02:49:46.950Z,86.90
2018-02-09T02:52:14.399Z,93.18
2018-02-09T02:54:41.953Z,78.45
2018-02-09T02:57:09.412Z,87.00
2018-02-09T02:59:36.970Z,82.85
2018-02-09T03:02:04.428Z,83.28
2018-02-09T03:04:31.999Z,85.82
2018-02-09T03:06:59.549Z,89.22
2018-02-09T03:09:27.009Z,85.15
2018-02-09T03:11:54.670Z,78.82
2018-02-09T03:14:22.230Z,77.22
2018-02-09T03:16:49.792Z,80.90
2018-02-09T03:19:18.012Z,78.82
2018-02-09T03:21:46.240Z,84.43
2018-02-09T03:24:13.796Z,87.40
2018-02-09T03:26:41.238Z,82.57
2018-02-09T03:29:08.707Z,86.28
2018-02-09T03:31:36.169Z,90.32
2018-02-09T03:34:03.727Z,86.90
2018-02-09T03:36:31.286Z,91.18
2018-02-09T03:38:58.847Z,86.68
2018-02-09T03:41:26.402Z,85.95
2018-02-09T03:43:53.857Z,90.65
2018-02-09T03:46:21.318Z,79.00
2018-02-09T03:48:48.775Z,85.15
2018-02-09T03:51:16.329Z,84.82
2018-02-09T03:53:43.802Z,81.50
2018-02-09T03:56:11.302Z,86.82
2018-02-09T03:58:38.706Z,88.65
2018-02-09T04:01:06.168Z,82.60
2018-02-09T04:03:33.702Z,83.40
2018-02-09T04:06:01.171Z,83.43
2018-02-09T04:08:28.633Z,82.00
2018-02-09T04:10:56.202Z,89.22
2018-02-09T04:13:23.746Z,95.35
2018-02-09T04:15:51.200Z,101.62
2018-02-09T04:18:18.650Z,103.55
2018-02-09T04:20:46.124Z,86.32
2018-02-09T04:23:13.690Z,121.85
2018-02-09T04:25:41.152Z,122.15
2018-02-09T04:28:09.409Z,85.10
2018-02-09T04:30:37.527Z,100.68
2018-02-09T04:33:05.731Z,77.82
2018-02-09T04:35:33.222Z,114.62
2018-02-09T04:38:00.674Z,121.55
2018-02-09T04:40:28.237Z,123.82
2018-02-09T04:42:55.790Z,119.55
2018-02-09T04:45:23.358Z,118.07
2018-02-09T04:47:51.050Z,117.97
2018-02-09T04:50:19.282Z,119.13
2018-02-09T04:52:46.731Z,118.18
2018-02-09T04:55:14.278Z,119.35
2018-02-09T04:57:41.758Z,121.72
2018-02-09T05:00:09.214Z,120.15
2018-02-09T05:02:36.779Z,120.20
2018-02-09T05:05:04.247Z,117.10
2018-02-09T05:07:31.798Z,99.05
2018-02-09T05:09:59.351Z,115.45
2018-02-09T05:12:26.807Z,117.07
2018-02-09T05:14:54.362Z,124.43
2018-02-09T05:17:22.430Z,119.78
2018-02-09T05:19:49.886Z,118.20
2018-02-09T05:22:17.350Z,119.87
2018-02-09T05:24:44.810Z,114.60
2018-02-09T05:27:12.711Z,125.05
2018-02-09T05:29:40.946Z,118.43
2018-02-09T05:32:08.390Z,113.07
2018-02-09T05:34:35.845Z,112.05
2018-02-09T05:37:03.325Z,112.93
2018-02-09T05:39:30.782Z,108.97
2018-02-09T05:41:58.257Z,114.62
2018-02-09T05:44:25.706Z,117.03
2018-02-09T05:46:53.162Z,110.55
2018-02-09T05:49:20.817Z,112.30
2018-02-09T05:51:48.272Z,118.40
2018-02-09T05:54:15.823Z,116.70
2018-02-09T05:56:43.466Z,114.68
2018-02-09T05:59:10.943Z,108.70
2018-02-09T06:01:38.681Z,106.78
2018-02-09T06:04:06.113Z,107.82
2018-02-09T06:06:34.230Z,106.97
2018-02-09T06:09:01.686Z,105.78
2018-02-09T06:11:29.146Z,113.00
2018-02-09T06:13:56.598Z,112.65
2018-02-09T06:16:24.057Z,117.18
2018-02-09T06:18:51.514Z,120.72
2018-02-09T06:21:19.490Z,109.55
2018-02-09T06:23:47.125Z,107.20
2018-02-09T06:26:14.571Z,118.95
2018-02-09T06:28:42.028Z,113.55
2018-02-09T06:31:09.521Z,111.40
2018-02-09T06:33:37.075Z,111.72
2018-02-09T06:36:04.629Z,108.35
2018-02-09T06:38:32.818Z,105.75
2018-02-09T06:41:00.271Z,110.05
2018-02-09T06:43:27.827Z,105.87
2018-02-09T06:45:55.384Z,106.20
2018-02-09T06:48:23.654Z,89.00
2018-02-09T06:50:51.118Z,105.35
2018-02-09T06:53:18.570Z,109.18
2018-02-09T06:55:46.030Z,111.18
2018-02-09T06:58:13.589Z,105.07
2018-02-09T07:00:41.081Z,107.37
2018-02-09T07:03:08.602Z,107.70
2018-02-09T07:05:36.058Z,112.28
2018-02-09T07:08:03.506Z,108.90
2018-02-09T07:10:31.015Z,106.07
2018-02-09T07:12:59.258Z,106.07
2018-02-09T07:15:26.810Z,106.25
2018-02-09T07:17:54.682Z,106.68
2018-02-09T07:20:22.146Z,106.03
2018-02-09T07:22:49.726Z,107.43
2018-02-09T07:25:17.947Z,104.35
2018-02-09T07:27:45.392Z,105.97
2018-02-09T07:30:12.852Z,103.20
2018-02-09T07:32:40.339Z,104.10
2018-02-09T07:35:07.797Z,109.32
2018-02-09T07:37:35.246Z,105.97
2018-02-09T07:40:02.887Z,104.03
2018-02-09T07:42:30.366Z,107.63
2018-02-09T07:44:57.926Z,107.05
2018-02-09T07:47:25.872Z,110.03
2018-02-09T07:49:53.447Z,109.40
2018-02-09T07:52:20.907Z,111.07
2018-02-09T07:54:48.362Z,112.25
2018-02-09T07:57:15.823Z,114.60
2018-02-09T07:59:43.270Z,110.40
2018-02-09T08:02:10.727Z,114.90
2018-02-09T08:04:38.195Z,113.43
2018-02-09T08:07:05.967Z,118.35
2018-02-09T08:09:33.419Z,113.65
2018-02-09T08:12:01.027Z,116.28
2018-02-09T08:14:28.430Z,120.15
2018-02-09T08:16:55.894Z,122.05
2018-02-09T08:19:23.346Z,117.47
2018-02-09T08:21:50.837Z,129.48
2018-02-09T08:24:18.374Z,118.30
2018-02-09T08:26:46.039Z,121.90
2018-02-09T08:29:13.495Z,137.07
2018-02-09T08:31:41.116Z,139.57
2018-02-09T08:34:08.573Z,131.93
2018-02-09T08:36:36.054Z,145.07
2018-02-09T08:39:03.514Z,139.30
2018-02-09T08:41:31.781Z,134.83
2018-02-09T08:43:59.251Z,134.00
2018-02-09T08:46:26.815Z,132.80
2018-02-09T08:48:54.396Z,131.27
2018-02-09T08:51:22.638Z,132.32
2018-02-09T08:53:50.231Z,131.37
2018-02-09T08:56:17.679Z,134.63
2018-02-09T08:58:45.214Z,139.63
2018-02-09T09:01:12.695Z,135.40
2018-02-09T09:03:41.792Z,126.43
2018-02-09T09:06:10.043Z,136.48
2018-02-09T09:08:37.502Z,142.43
2018-02-09T09:11:05.070Z,142.85
2018-02-09T09:13:32.531Z,134.98
2018-02-09T09:16:00.003Z,134.23
2018-02-09T09:18:28.129Z,143.70
2018-02-09T09:20:55.711Z,136.60
2018-02-09T09:23:23.988Z,135.90
2018-02-09T09:25:51.739Z,143.40
2018-02-09T09:28:19.211Z,148.17
2018-02-09T09:30:46.666Z,143.90
2018-02-09T09:33:14.119Z,141.63
2018-02-09T09:35:41.579Z,149.07
2018-02-09T09:38:09.205Z,152.13
2018-02-09T09:40:36.647Z,157.10
2018-02-09T09:43:04.103Z,155.17
2018-02-09T09:45:31.566Z,172.47
2018-02-09T09:47:59.059Z,172.30
2018-02-09T09:50:26.625Z,176.30
2018-02-09T09:52:54.074Z,174.30
2018-02-09T09:55:21.534Z,177.50
2018-02-09T09:57:48.994Z,174.80
2018-02-09T10:00:16.466Z,195.13
2018-02-09T10:02:43.934Z,187.90
2018-02-09T10:05:12.188Z,190.03
2018-02-09T10:07:39.642Z,190.93
2018-02-09T10:10:07.105Z,189.80
2018-02-09T10:12:34.558Z,191.47
2018-02-09T10:15:02.014Z,183.50
2018-02-09T10:17:29.491Z,208.10
2018-02-09T10:19:56.946Z,204.07
2018-02-09T10:22:24.395Z,203.57
2018-02-09T10:24:51.852Z,208.23
2018-02-09T10:27:19.298Z,189.77
2018-02-09T10:29:46.761Z,184.87
2018-02-09T10:32:14.253Z,175.00
2018-02-09T10:34:41.727Z,177.03
2018-02-09T10:37:09.946Z,179.40
2018-02-09T10:39:37.390Z,175.53
2018-02-09T10:42:04.846Z,173.33
2018-02-09T10:44:32.325Z,180.30
2018-02-09T10:46:59.774Z,175.50
2018-02-09T10:49:27.234Z,185.43
2018-02-09T10:51:54.731Z,195.30
2018-02-09T10:54:22.927Z,184.83
2018-02-09T10:56:50.383Z,204.73
2018-02-09T10:59:17.839Z,210.53
2018-02-09T11:01:45.316Z,211.57
2018-02-09T11:04:12.742Z,213.67
2018-02-09T11:06:40.215Z,203.17
2018-02-09T11:09:07.767Z,223.00
2018-02-09T11:11:35.202Z,210.30
2018-02-09T11:14:02.658Z,217.93
2018-02-09T11:16:30.867Z,215.17
2018-02-09T11:18:58.330Z,210.20
2018-02-09T11:21:25.765Z,225.20
2018-02-09T11:23:53.222Z,229.43
2018-02-09T11:26:20.661Z,238.00
2018-02-09T11:28:48.138Z,213.63
2018-02-09T11:31:16.191Z,205.53
2018-02-09T11:33:43.691Z,214.03
2018-02-09T11:36:11.193Z,237.50
2018-02-09T11:38:39.111Z,253.80
2018-02-09T11:41:06.561Z,265.30
2018-02-09T11:43:34.060Z,248.47
2018-02-09T11:46:01.768Z,255.30
2018-02-09T11:48:29.774Z,237.07
2018-02-09T11:50:57.406Z,226.63
2018-02-09T11:53:24.904Z,213.67
2018-02-09T11:55:52.441Z,222.77
2018-02-09T11:58:19.922Z,210.27
2018-02-09T12:00:47.368Z,213.10
2018-02-09T12:03:14.887Z,222.90
2018-02-09T12:05:42.367Z,216.97
2018-02-09T12:08:09.823Z,221.83
2018-02-09T12:10:37.278Z,212.43
2018-02-09T12:13:04.735Z,214.97
2018-02-09T12:15:32.199Z,227.50
2018-02-09T12:17:59.687Z,220.10
2018-02-09T12:20:27.964Z,241.43
2018-02-09T12:22:55.408Z,229.13
2018-02-09T12:25:22.931Z,216.67
2018-02-09T12:27:50.386Z,228.97
2018-02-09T12:30:17.963Z,234.83
2018-02-09T12:32:45.418Z,233.97
2018-02-09T12:35:12.987Z,252.43
2018-02-09T12:37:40.435Z,258.97
2018-02-09T12:40:07.881Z,253.60
2018-02-09T12:42:35.334Z,258.93
2018-02-09T12:45:02.786Z,260.57
2018-02-09T12:47:30.245Z,284.50
2018-02-09T12:49:57.723Z,291.37
2018-02-09T12:52:25.189Z,283.87
2018-02-09T12:54:53.013Z,283.87
2018-02-09T12:57:20.449Z,284.97
2018-02-09T12:59:47.924Z,293.57
2018-02-09T13:02:15.360Z,301.17
2018-02-09T13:04:43.695Z,294.57
2018-02-09T13:07:11.143Z,283.47
2018-02-09T13:09:38.595Z,290.53
2018-02-09T13:12:06.074Z,277.67
2018-02-09T13:14:45.590Z,278.40
2018-02-09T13:17:13.036Z,287.93
2018-02-09T13:19:40.510Z,292.70
2018-02-09T13:22:07.967Z,302.93
2018-02-09T13:24:36.238Z,312.20
2018-02-09T13:27:03.699Z,326.07
2018-02-09T13:29:31.180Z,297.47
2018-02-09T13:31:58.714Z,285.70
2018-02-09T13:34:26.170Z,283.73
2018-02-09T13:40:02.426Z,264.97
2018-02-09T13:42:29.902Z,265.83
2018-02-09T13:44:57.354Z,262.83
2018-02-09T13:47:24.806Z,274.40
2018-02-09T13:49:52.264Z,251.20
2018-02-09T13:52:19.765Z,242.07
2018-02-09T13:54:47.206Z,232.67
2018-02-09T13:57:14.681Z,208.43
2018-02-09T13:59:42.209Z,191.70
2018-02-09T14:02:09.654Z,175.93
2018-02-09T14:04:37.114Z,160.83
2018-02-09T14:07:04.586Z,161.37
2018-02-09T14:09:32.091Z,157.50
2018-02-09T14:11:59.550Z,161.03
2018-02-09T14:14:27.047Z,151.40
2018-02-09T14:16:54.496Z,154.97
2018-02-09T14:19:22.378Z,152.40
2018-02-09T14:21:49.835Z,147.65
2018-02-09T14:24:17.282Z,146.60
2018-02-09T14:26:44.761Z,148.70
2018-02-09T14:29:12.307Z,143.20
2018-02-09T14:31:39.777Z,144.87
2018-02-09T14:34:07.317Z,143.53
2018-02-09T14:36:34.778Z,142.93
2018-02-09T14:39:02.330Z,143.45
2018-02-09T14:41:29.782Z,141.12
2018-02-09T14:43:57.351Z,144.80
2018-02-09T14:46:24.819Z,142.75
2018-02-09T14:48:52.279Z,140.98
2018-02-09T14:51:19.751Z,139.62
2018-02-09T14:53:47.970Z,141.32
2018-02-09T14:56:15.457Z,143.87
2018-02-09T14:58:43.110Z,139.55
2018-02-09T15:01:10.691Z,140.05
2018-02-09T15:03:38.142Z,138.52
2018-02-09T15:06:05.606Z,144.02
2018-02-09T15:08:33.120Z,142.02
2018-02-09T15:11:00.699Z,138.45
2018-02-09T15:13:28.157Z,140.88
2018-02-09T15:15:55.714Z,137.05
2018-02-09T15:18:23.170Z,139.90
2018-02-09T15:20:50.635Z,148.57
2018-02-09T15:23:18.086Z,141.65
2018-02-09T15:25:45.550Z,142.75
2018-02-09T15:28:12.998Z,141.45
2018-02-09T15:30:40.458Z,142.57
2018-02-09T15:33:07.921Z,137.55
2018-02-09T15:35:35.478Z,145.87
2018-02-09T15:38:03.035Z,138.68
2018-02-09T15:40:30.501Z,140.23
2018-02-09T15:42:57.976Z,139.27
2018-02-09T15:45:26.185Z,140.90
2018-02-09T15:47:53.661Z,146.05
2018-02-09T15:50:21.153Z,143.27
2018-02-09T15:52:48.594Z,141.40
2018-02-09T15:55:16.160Z,138.02
2018-02-09T15:57:43.643Z,142.18
2018-02-09T16:00:11.167Z,137.90
2018-02-09T16:02:38.756Z,143.57
2018-02-09T16:05:08.212Z,138.57
2018-02-09T16:07:35.711Z,141.07
2018-02-09T16:10:03.165Z,141.32
2018-02-09T16:12:30.614Z,140.98
2018-02-09T16:14:58.878Z,142.77
2018-02-09T16:17:26.334Z,142.10
2018-02-09T16:19:53.807Z,139.93
2018-02-09T16:22:21.291Z,138.27
2018-02-09T16:24:49.532Z,142.25
2018-02-09T16:27:17.092Z,138.00
2018-02-09T16:29:44.548Z,138.48
2018-02-09T16:32:11.994Z,137.30
2018-02-09T16:34:39.553Z,142.40
2018-02-09T16:37:07.006Z,141.90
2018-02-09T16:39:34.466Z,140.70
2018-02-09T16:42:02.031Z,136.62
2018-02-09T16:44:30.318Z,140.95
2018-02-09T16:46:57.866Z,144.55
2018-02-09T16:49:26.250Z,140.55
2018-02-09T16:51:53.730Z,141.18
2018-02-09T16:54:21.198Z,141.82
2018-02-09T16:56:48.830Z,133.68
2018-02-09T16:59:16.279Z,135.27
2018-02-09T17:01:43.786Z,137.15
2018-02-09T17:04:11.999Z,135.30
2018-02-09T17:06:39.459Z,135.35
2018-02-09T17:09:07.743Z,136.82
2018-02-09T17:11:35.202Z,136.55
2018-02-09T17:14:02.670Z,137.52
2018-02-09T17:16:30.122Z,132.07
2018-02-09T17:18:57.574Z,135.43
2018-02-09T17:21:25.152Z,135.30
2018-02-09T17:23:52.685Z,135.32
2018-02-09T17:26:20.243Z,132.30
2018-02-09T17:28:47.693Z,136.02
2018-02-09T17:31:15.163Z,130.98
2018-02-09T17:33:42.606Z,140.50
2018-02-09T17:36:10.097Z,136.12
2018-02-09T17:38:37.645Z,133.80
2018-02-09T17:41:05.186Z,132.27
2018-02-09T17:43:32.729Z,137.52
2018-02-09T17:46:00.186Z,132.65
2018-02-09T17:48:27.639Z,133.35
2018-02-09T17:50:55.103Z,132.80
2018-02-09T17:53:23.702Z,134.85
2018-02-09T17:55:51.207Z,133.52
2018-02-09T17:58:18.731Z,134.65
2018-02-09T18:00:46.190Z,130.65
2018-02-09T18:03:14.563Z,137.23
2018-02-09T18:05:42.022Z,138.30
2018-02-09T18:08:09.480Z,131.37
2018-02-09T18:10:37.031Z,134.63
2018-02-09T18:13:04.478Z,133.68
2018-02-09T18:15:31.933Z,134.77
2018-02-09T18:17:59.726Z,129.68
2018-02-09T18:20:27.990Z,134.23
2018-02-09T18:22:55.447Z,135.93
2018-02-09T18:25:22.946Z,138.43
2018-02-09T18:27:51.178Z,139.80
2018-02-09T18:30:19.062Z,134.37
2018-02-09T18:32:46.513Z,133.37
2018-02-09T18:35:14.726Z,133.60
2018-02-09T18:37:42.241Z,133.00
2018-02-09T18:40:09.688Z,135.45
2018-02-09T18:42:37.153Z,139.57
2018-02-09T18:45:04.773Z,129.95
2018-02-09T18:47:32.332Z,138.98
2018-02-09T18:49:59.767Z,129.73
2018-02-09T18:52:27.286Z,134.80
2018-02-09T18:54:54.914Z,131.12
2018-02-09T18:57:22.397Z,138.62
2018-02-09T18:59:49.851Z,136.45
2018-02-09T19:02:17.306Z,131.45
2018-02-09T19:04:44.809Z,140.27
2018-02-09T19:07:13.019Z,137.55
2018-02-09T19:09:40.470Z,138.73
2018-02-09T19:12:07.943Z,133.27
2018-02-09T19:14:35.378Z,133.43
2018-02-09T19:17:02.829Z,134.07
2018-02-09T19:19:31.099Z,137.90
2018-02-09T19:21:58.602Z,133.25
2018-02-09T19:24:26.051Z,132.40
2018-02-09T19:26:53.606Z,134.65
2018-02-09T19:29:21.252Z,130.43
2018-02-09T19:31:48.686Z,129.35
2018-02-09T19:34:16.139Z,135.68
2018-02-09T19:36:43.593Z,129.68
2018-02-09T19:39:11.069Z,131.48
2018-02-09T19:41:39.554Z,132.27
2018-02-09T19:44:07.026Z,130.82
2018-02-09T19:46:34.502Z,132.18
2018-02-09T19:49:01.939Z,131.07
2018-02-09T19:51:29.431Z,129.12
2018-02-09T19:53:56.990Z,131.80
2018-02-09T19:56:24.474Z,134.30
2018-02-09T19:58:52.771Z,139.75
2018-02-09T20:01:20.283Z,131.57
2018-02-09T20:03:47.727Z,133.25
2018-02-09T20:06:15.182Z,132.35
2018-02-09T20:08:42.746Z,136.18
2018-02-09T20:11:10.206Z,135.20
2018-02-09T20:13:37.704Z,132.60
2018-02-09T20:16:06.026Z,131.98
2018-02-09T20:18:33.557Z,131.05
2018-02-09T20:21:01.001Z,133.20
2018-02-09T20:23:28.510Z,132.90
2018-02-09T20:25:55.966Z,130.18
2018-02-09T20:28:23.687Z,103.72
2018-02-09T20:30:51.171Z,133.87
2018-02-09T20:33:18.634Z,130.00
2018-02-09T20:35:46.087Z,126.70
2018-02-09T20:38:13.647Z,130.10
2018-02-09T20:40:41.203Z,128.00
2018-02-09T20:43:08.662Z,132.87
2018-02-09T20:45:36.218Z,131.05
2018-02-09T20:48:03.677Z,132.30
2018-02-09T20:50:31.163Z,137.45
2018-02-09T20:52:58.695Z,132.23
2018-02-09T20:55:26.982Z,128.38
2018-02-09T20:57:54.530Z,129.05
2018-02-09T21:00:21.985Z,130.57
2018-02-09T21:02:49.434Z,130.68
2018-02-09T21:05:16.890Z,130.60
2018-02-09T21:07:44.369Z,129.60
2018-02-09T21:10:12.579Z,129.55
2018-02-09T21:12:40.807Z,126.60
2018-02-09T21:15:08.259Z,127.75
2018-02-09T21:17:35.720Z,130.20
2018-02-09T21:20:03.169Z,126.82
2018-02-09T21:22:30.622Z,127.68
2018-02-09T21:24:58.086Z,134.27
2018-02-09T21:27:25.548Z,132.15
2018-02-09T21:29:53.023Z,125.07
2018-02-09T21:32:20.554Z,128.50
2018-02-09T21:34:48.131Z,127.87
2018-02-09T21:37:15.677Z,127.68
2018-02-09T21:39:43.243Z,129.05
2018-02-09T21:42:10.698Z,126.70
2018-02-09T21:44:38.151Z,127.22
2018-02-09T21:47:06.211Z,132.27
2018-02-09T21:49:33.674Z,127.78
2018-02-09T21:52:01.133Z,127.40
2018-02-09T21:54:28.612Z,130.10
2018-02-09T21:56:56.069Z,130.23
2018-02-09T21:59:23.530Z,125.30
2018-02-09T22:01:50.984Z,129.70
2018-02-09T22:04:18.455Z,126.55
2018-02-09T22:06:45.906Z,126.93
2018-02-09T22:09:13.562Z,126.60
2018-02-09T22:11:41.022Z,126.55
2018-02-09T22:14:09.258Z,129.00
2018-02-09T22:16:36.716Z,128.87
2018-02-09T22:19:04.190Z,128.27
2018-02-09T22:21:31.753Z,128.62
2018-02-09T22:23:59.211Z,129.43
2018-02-09T22:26:26.715Z,125.20
2018-02-09T22:28:54.936Z,127.40
2018-02-09T22:31:22.819Z,128.00
2018-02-09T22:33:50.274Z,126.40
2018-02-09T22:36:17.804Z,126.25
2018-02-09T22:38:45.373Z,129.50
2018-02-09T22:41:12.937Z,126.20
2018-02-09T22:43:40.588Z,127.70
2018-02-09T22:46:08.056Z,126.05
2018-02-09T22:48:35.519Z,127.10
2018-02-09T22:51:02.996Z,123.85
2018-02-09T22:53:30.449Z,126.20
2018-02-09T22:55:57.984Z,127.78
2018-02-09T22:58:25.458Z,129.25
2018-02-09T23:00:52.912Z,126.07
2018-02-09T23:03:20.447Z,124.75
2018-02-09T23:05:47.893Z,130.07
2018-02-09T23:08:15.349Z,123.78
2018-02-09T23:10:42.847Z,131.87
2018-02-09T23:13:10.378Z,128.27
2018-02-09T23:15:37.831Z,129.25
2018-02-09T23:18:05.296Z,124.32
2018-02-09T23:20:32.740Z,128.87
2018-02-09T23:23:00.195Z,128.60
2018-02-09T23:25:27.651Z,129.87
2018-02-09T23:27:55.115Z,123.62
2018-02-09T23:30:22.583Z,130.93
2018-02-09T23:32:50.133Z,127.70
2018-02-09T23:35:17.590Z,130.37
2018-02-09T23:37:45.058Z,123.18
2018-02-09T23:40:12.614Z,127.45
2018-02-09T23:42:40.171Z,125.65
2018-02-09T23:45:07.726Z,124.47
2018-02-09T23:47:35.183Z,126.03
2018-02-09T23:50:02.639Z,124.65
2018-02-09T23:52:30.094Z,135.45
2018-02-09T23:54:57.543Z,125.53
2018-02-09T23:57:25.012Z,124.70
2018-02-09T23:59:52.575Z,123.28
